Time,TemperatureF,DewpointF,PressureIn,WindDirection,WindDirectionDegrees,WindSpeedMPH,WindSpeedGustMPH,Humidity,HourlyPrecipIn,Conditions,Clouds,dailyrainin,SoftwareType,DateUTC
2013-04-11 00:08:00,35.7,25.0,29.91,ENE,57,0.0,-999.0,65,-99.99,,,0.00,weatherlink.com 1.10,2013-04-11 05:08:00,
2013-04-11 00:23:00,35.9,25.0,29.91,ENE,59,3.0,-999.0,64,-99.99,,,0.00,weatherlink.com 1.10,2013-04-11 05:23:00,
2013-04-11 00:38:00,36.0,25.0,29.91,NE,51,2.0,-999.0,64,-99.99,,,0.00,weatherlink.com 1.10,2013-04-11 05:38:00,
2013-04-11 00:53:00,36.2,25.0,29.89,NE,56,1.0,-999.0,63,-99.99,,,0.00,weatherlink.com 1.10,2013-04-11 05:53:00,
2013-04-11 01:08:00,36.4,24.0,29.89,ENE,66,3.0,-999.0,62,-99.99,,,0.00,weatherlink.com 1.10,2013-04-11 06:08:00,
2013-04-11 01:23:00,36.5,24.0,29.87,NE,55,8.0,-999.0,61,-99.99,,,0.00,weatherlink.com 1.10,2013-04-11 06:23:00,
2013-04-11 01:38:00,36.5,24.0,29.87,ENE,65,2.0,-999.0,61,-99.99,,,0.00,weatherlink.com 1.10,2013-04-11 06:38:00,
2013-04-11 01:53:00,36.4,24.0,29.86,East,96,1.0,-999.0,61,-99.99,,,0.00,weatherlink.com 1.10,2013-04-11 06:53:00,
2013-04-11 02:08:00,36.4,24.0,29.86,East,82,3.0,-999.0,60,-99.99,,,0.00,weatherlink.com 1.10,2013-04-11 07:08:00,
2013-04-11 02:23:00,36.4,24.0,29.85,NE,42,5.0,-999.0,60,-99.99,,,0.00,weatherlink.com 1.10,2013-04-11 07:23:00,
2013-04-11 02:38:00,36.4,23.0,29.83,East,81,1.0,-999.0,58,-99.99,,,0.00,weatherlink.com 1.10,2013-04-11 07:38:00,
2013-04-11 02:54:00,36.4,23.0,29.82,East,92,1.0,-999.0,59,-99.99,,,0.00,weatherlink.com 1.10,2013-04-11 07:54:00,
2013-04-11 03:09:00,36.1,22.0,29.82,East,82,6.0,-999.0,58,-99.99,,,0.00,weatherlink.com 1.10,2013-04-11 08:09:00,
2013-04-11 03:24:00,36.1,22.0,29.82,ENE,59,3.0,-999.0,56,-99.99,,,0.00,weatherlink.com 1.10,2013-04-11 08:24:00,
2013-04-11 03:39:00,35.8,22.0,29.81,NE,54,4.0,-999.0,58,-99.99,,,0.00,weatherlink.com 1.10,2013-04-11 08:39:00,
2013-04-11 03:54:00,35.1,23.0,29.82,ESE,111,3.0,-999.0,61,-99.99,,,0.00,weatherlink.com 1.10,2013-04-11 08:54:00,
2013-04-11 04:09:00,33.8,24.0,29.81,ESE,111,3.0,-999.0,68,-99.99,,,0.00,weatherlink.com 1.10,2013-04-11 09:09:00,
2013-04-11 04:24:00,33.1,25.0,29.81,East,90,2.0,-999.0,71,-99.99,,,0.00,weatherlink.com 1.10,2013-04-11 09:24:00,
2013-04-11 04:39:00,32.3,25.0,29.80,East,96,3.0,-999.0,74,-99.99,,,0.00,weatherlink.com 1.10,2013-04-11 09:39:00,
2013-04-11 04:54:00,32.1,25.0,29.78,ENE,64,4.0,-999.0,76,-99.99,,,0.00,weatherlink.com 1.10,2013-04-11 09:54:00,
2013-04-11 05:09:00,32.0,26.0,29.78,ENE,69,2.0,-999.0,77,-99.99,,,0.00,weatherlink.com 1.10,2013-04-11 10:09:00,
2013-04-11 05:24:00,31.8,26.0,29.78,ENE,65,5.0,-999.0,78,-99.99,,,0.00,weatherlink.com 1.10,2013-04-11 10:24:00,
2013-04-11 05:39:00,31.9,26.0,29.79,NNE,30,2.0,-999.0,78,-99.99,,,0.00,weatherlink.com 1.10,2013-04-11 10:39:00,
2013-04-11 05:54:00,32.0,26.0,29.81,ESE,106,2.0,-999.0,78,-99.99,,,0.00,weatherlink.com 1.10,2013-04-11 10:54:00,
2013-04-11 06:09:00,31.8,26.0,29.82,ENE,68,1.0,-999.0,79,-99.99,,,0.00,weatherlink.com 1.10,2013-04-11 11:09:00,
2013-04-11 06:24:00,31.6,26.0,29.84,East,92,1.0,-999.0,81,-99.99,,,0.00,weatherlink.com 1.10,2013-04-11 11:24:00,
2013-04-11 06:39:00,31.0,26.0,29.83,North,355,1.0,-999.0,83,-99.99,,,0.00,weatherlink.com 1.10,2013-04-11 11:39:00,
2013-04-11 06:54:00,30.5,27.0,29.81,ENE,57,3.0,-999.0,86,-99.99,,,0.00,weatherlink.com 1.10,2013-04-11 11:54:00,
2013-04-11 07:09:00,30.1,27.0,29.80,ENE,63,0.0,-999.0,87,-99.99,,,0.00,weatherlink.com 1.10,2013-04-11 12:09:00,
2013-04-11 07:24:00,29.8,27.0,29.81,ENE,61,0.0,-999.0,89,-99.99,,,0.00,weatherlink.com 1.10,2013-04-11 12:24:00,
2013-04-11 07:39:00,29.6,27.0,29.80,ENE,71,2.0,-999.0,90,-99.99,,,0.00,weatherlink.com 1.10,2013-04-11 12:39:00,
2013-04-11 07:54:00,29.5,27.0,29.80,East,96,0.0,-999.0,90,-99.99,,,0.00,weatherlink.com 1.10,2013-04-11 12:54:00,
2013-04-11 08:09:00,29.5,27.0,29.78,ENE,57,3.0,-999.0,91,-99.99,,,0.00,weatherlink.com 1.10,2013-04-11 13:09:00,
2013-04-11 08:24:00,29.5,28.0,29.78,East,95,0.0,-999.0,92,-99.99,,,0.00,weatherlink.com 1.10,2013-04-11 13:24:00,
2013-04-11 08:39:00,29.6,28.0,29.77,ENE,57,1.0,-999.0,92,-99.99,,,0.00,weatherlink.com 1.10,2013-04-11 13:39:00,
2013-04-11 08:54:00,29.9,28.0,29.77,East,96,0.0,-999.0,92,-99.99,,,0.00,weatherlink.com 1.10,2013-04-11 13:54:00,
2013-04-11 09:09:00,30.2,29.0,29.77,ESE,105,2.0,-999.0,93,-99.99,,,0.00,weatherlink.com 1.10,2013-04-11 14:09:00,
2013-04-11 09:24:00,30.3,29.0,29.76,ENE,78,2.0,-999.0,93,-99.99,,,0.00,weatherlink.com 1.10,2013-04-11 14:24:00,
2013-04-11 09:39:00,30.8,29.0,29.75,East,91,1.0,-999.0,93,-99.99,,,0.00,weatherlink.com 1.10,2013-04-11 14:39:00,
2013-04-11 09:54:00,32.3,31.0,29.75,East,84,5.0,-999.0,94,-99.99,,,0.00,weatherlink.com 1.10,2013-04-11 14:54:00,
2013-04-11 10:09:00,33.8,32.0,29.75,East,96,3.0,-999.0,94,-99.99,,,0.00,weatherlink.com 1.10,2013-04-11 15:09:00,
2013-04-11 10:24:00,34.3,33.0,29.75,East,87,6.0,-999.0,93,-99.99,,,0.00,weatherlink.com 1.10,2013-04-11 15:24:00,
2013-04-11 10:39:00,34.6,33.0,29.76,ENE,65,5.0,-999.0,92,-99.99,,,0.00,weatherlink.com 1.10,2013-04-11 15:39:00,
2013-04-11 10:54:00,34.8,33.0,29.75,ENE,70,5.0,-999.0,91,-99.99,,,0.01,weatherlink.com 1.10,2013-04-11 15:54:00,
2013-04-11 11:09:00,35.5,33.0,29.75,NE,44,5.0,-999.0,89,-99.99,,,0.02,weatherlink.com 1.10,2013-04-11 16:09:00,
2013-04-11 11:24:00,36.1,33.0,29.75,ENE,57,5.0,-999.0,88,-99.99,,,0.03,weatherlink.com 1.10,2013-04-11 16:24:00,
2013-04-11 11:39:00,36.5,33.0,29.75,East,88,11.0,-999.0,86,-99.99,,,0.04,weatherlink.com 1.10,2013-04-11 16:39:00,
2013-04-11 11:55:00,36.6,32.0,29.76,NE,42,4.0,-999.0,84,-99.99,,,0.05,weatherlink.com 1.10,2013-04-11 16:55:00,
2013-04-11 12:10:00,36.5,32.0,29.76,ESE,106,11.0,-999.0,84,-99.99,,,0.07,weatherlink.com 1.10,2013-04-11 17:10:00,
2013-04-11 12:25:00,36.6,32.0,29.75,ENE,59,3.0,-999.0,84,-99.99,,,0.09,weatherlink.com 1.10,2013-04-11 17:25:00,
2013-04-11 12:40:00,36.9,33.0,29.74,ENE,78,7.0,-999.0,84,-99.99,,,0.11,weatherlink.com 1.10,2013-04-11 17:40:00,
2013-04-11 12:55:00,37.0,33.0,29.73,East,80,6.0,-999.0,84,-99.99,,,0.13,weatherlink.com 1.10,2013-04-11 17:55:00,
2013-04-11 13:10:00,37.2,33.0,29.74,ESE,108,5.0,-999.0,84,-99.99,,,0.14,weatherlink.com 1.10,2013-04-11 18:10:00,
2013-04-11 13:25:00,37.2,33.0,29.73,NE,48,9.0,-999.0,84,-99.99,,,0.16,weatherlink.com 1.10,2013-04-11 18:25:00,
2013-04-11 13:40:00,37.0,33.0,29.71,ENE,59,6.0,-999.0,84,-99.99,,,0.17,weatherlink.com 1.10,2013-04-11 18:40:00,
2013-04-11 13:55:00,36.9,33.0,29.71,ENE,69,4.0,-999.0,84,-99.99,,,0.19,weatherlink.com 1.10,2013-04-11 18:55:00,
2013-04-11 14:25:00,36.8,32.0,29.70,NE,49,6.0,-999.0,84,-99.99,,,0.20,weatherlink.com 1.10,2013-04-11 19:25:00,
2013-04-11 14:40:00,36.7,32.0,29.70,East,92,0.0,-999.0,84,-99.99,,,0.20,weatherlink.com 1.10,2013-04-11 19:40:00,
2013-04-11 14:55:00,36.5,32.0,29.72,ENE,71,4.0,-999.0,84,-99.99,,,0.21,weatherlink.com 1.10,2013-04-11 19:55:00,
2013-04-11 15:10:00,36.4,32.0,29.71,ENE,71,1.0,-999.0,85,-99.99,,,0.21,weatherlink.com 1.10,2013-04-11 20:10:00,
2013-04-11 15:25:00,36.2,32.0,29.71,ENE,59,3.0,-999.0,86,-99.99,,,0.21,weatherlink.com 1.10,2013-04-11 20:25:00,
2013-04-11 15:40:00,36.0,33.0,29.71,ENE,59,2.0,-999.0,87,-99.99,,,0.22,weatherlink.com 1.10,2013-04-11 20:40:00,
2013-04-11 15:55:00,35.8,33.0,29.71,ENE,78,2.0,-999.0,88,-99.99,,,0.23,weatherlink.com 1.10,2013-04-11 20:55:00,
2013-04-11 16:10:00,35.6,33.0,29.71,East,80,3.0,-999.0,89,-99.99,,,0.23,weatherlink.com 1.10,2013-04-11 21:10:00,
2013-04-11 16:25:00,35.4,33.0,29.71,SE,124,2.0,-999.0,89,-99.99,,,0.24,weatherlink.com 1.10,2013-04-11 21:25:00,
2013-04-11 16:40:00,35.2,33.0,29.71,ENE,67,1.0,-999.0,90,-99.99,,,0.24,weatherlink.com 1.10,2013-04-11 21:40:00,
2013-04-11 16:55:00,35.1,33.0,29.71,East,87,3.0,-999.0,91,-99.99,,,0.25,weatherlink.com 1.10,2013-04-11 21:55:00,
2013-04-11 17:10:00,34.9,33.0,29.71,ENE,57,3.0,-999.0,91,-99.99,,,0.25,weatherlink.com 1.10,2013-04-11 22:10:00,
2013-04-11 17:25:00,34.8,33.0,29.71,ENE,59,3.0,-999.0,91,-99.99,,,0.26,weatherlink.com 1.10,2013-04-11 22:25:00,
2013-04-11 17:40:00,34.6,32.0,29.71,NE,41,1.0,-999.0,91,-99.99,,,0.26,weatherlink.com 1.10,2013-04-11 22:40:00,
2013-04-11 17:55:00,34.4,32.0,29.72,ENE,60,4.0,-999.0,92,-99.99,,,0.26,weatherlink.com 1.10,2013-04-11 22:55:00,
2013-04-11 18:11:00,34.2,32.0,29.72,NE,35,2.0,-999.0,92,-99.99,,,0.27,weatherlink.com 1.10,2013-04-11 23:11:00,
2013-04-11 18:25:00,34.0,32.0,29.72,ENE,64,4.0,-999.0,92,-99.99,,,0.27,weatherlink.com 1.10,2013-04-11 23:25:00,
2013-04-11 18:40:00,33.9,32.0,29.72,NE,56,1.0,-999.0,92,-99.99,,,0.27,weatherlink.com 1.10,2013-04-11 23:40:00,
2013-04-11 18:55:00,33.6,32.0,29.72,NE,56,1.0,-999.0,93,-99.99,,,0.27,weatherlink.com 1.10,2013-04-11 23:55:00,
2013-04-11 19:10:00,33.0,31.0,29.72,ENE,64,3.0,-999.0,93,-99.99,,,0.27,weatherlink.com 1.10,2013-04-12 00:10:00,
2013-04-11 19:25:00,32.6,31.0,29.71,NE,51,3.0,-999.0,93,-99.99,,,0.27,weatherlink.com 1.10,2013-04-12 00:25:00,
2013-04-11 19:40:00,32.2,30.0,29.71,NE,51,3.0,-999.0,93,-99.99,,,0.27,weatherlink.com 1.10,2013-04-12 00:40:00,
2013-04-11 19:55:00,32.0,30.0,29.71,NE,51,4.0,-999.0,93,-99.99,,,0.27,weatherlink.com 1.10,2013-04-12 00:55:00,
2013-04-11 20:10:00,31.9,30.0,29.71,NE,51,1.0,-999.0,93,-99.99,,,0.27,weatherlink.com 1.10,2013-04-12 01:10:00,
2013-04-11 20:25:00,31.8,30.0,29.70,NE,51,1.0,-999.0,93,-99.99,,,0.27,weatherlink.com 1.10,2013-04-12 01:25:00,
2013-04-11 20:40:00,31.7,30.0,29.71,NE,51,2.0,-999.0,93,-99.99,,,0.27,weatherlink.com 1.10,2013-04-12 01:40:00,
2013-04-11 20:55:00,31.6,30.0,29.71,NE,51,3.0,-999.0,93,-99.99,,,0.27,weatherlink.com 1.10,2013-04-12 01:55:00,
2013-04-11 21:10:00,31.4,30.0,29.71,NE,51,3.0,-999.0,93,-99.99,,,0.27,weatherlink.com 1.10,2013-04-12 02:10:00,
2013-04-11 21:25:00,31.2,29.0,29.71,NE,51,1.0,-999.0,93,-99.99,,,0.27,weatherlink.com 1.10,2013-04-12 02:25:00,
2013-04-11 21:40:00,31.0,29.0,29.71,NE,51,2.0,-999.0,93,-99.99,,,0.27,weatherlink.com 1.10,2013-04-12 02:40:00,
2013-04-11 21:55:00,30.8,29.0,29.71,NE,51,0.0,-999.0,93,-99.99,,,0.27,weatherlink.com 1.10,2013-04-12 02:55:00,
2013-04-11 22:10:00,30.6,29.0,29.71,NE,51,5.0,-999.0,93,-99.99,,,0.27,weatherlink.com 1.10,2013-04-12 03:10:00,
2013-04-11 22:25:00,30.5,29.0,29.71,NE,51,3.0,-999.0,93,-99.99,,,0.27,weatherlink.com 1.10,2013-04-12 03:25:00,
2013-04-11 22:40:00,30.4,29.0,29.71,NE,51,3.0,-999.0,93,-99.99,,,0.27,weatherlink.com 1.10,2013-04-12 03:40:00,
2013-04-11 22:55:00,30.2,29.0,29.71,NE,51,3.0,-999.0,93,-99.99,,,0.27,weatherlink.com 1.10,2013-04-12 03:55:00,
2013-04-11 23:10:00,30.1,28.0,29.71,NE,51,2.0,-999.0,93,-99.99,,,0.27,weatherlink.com 1.10,2013-04-12 04:10:00,
2013-04-11 23:25:00,30.0,28.0,29.71,NE,51,0.0,-999.0,93,-99.99,,,0.27,weatherlink.com 1.10,2013-04-12 04:25:00,
2013-04-11 23:40:00,29.9,28.0,29.71,NE,51,1.0,-999.0,93,-99.99,,,0.27,weatherlink.com 1.10,2013-04-12 04:40:00,
2013-04-11 23:55:00,29.8,28.0,29.71,NE,51,0.0,-999.0,93,-99.99,,,0.27,weatherlink.com 1.10,2013-04-12 04:55:00,